createdAt,value
2023-05-09T00:01:14.878Z,11.87
2023-05-09T00:03:47.737Z,11.77
2023-05-09T00:06:20.155Z,11.82
2023-05-09T00:08:52.393Z,11.81
2023-05-09T00:11:24.797Z,11.78
2023-05-09T00:13:57.491Z,11.75
2023-05-09T00:16:29.988Z,11.74
2023-05-09T00:19:03.384Z,11.71
2023-05-09T00:21:35.918Z,11.68
2023-05-09T00:24:09.267Z,11.64
2023-05-09T00:26:41.603Z,11.63
2023-05-09T00:29:13.958Z,11.56
2023-05-09T00:31:46.224Z,11.52
2023-05-09T00:34:18.371Z,11.49
2023-05-09T00:36:51.001Z,11.29
2023-05-09T00:39:23.266Z,11.43
2023-05-09T00:41:56.915Z,11.41
2023-05-09T00:44:29.155Z,11.39
2023-05-09T00:47:01.518Z,11.38
2023-05-09T00:49:34.183Z,11.35
2023-05-09T00:52:07.982Z,11.35
2023-05-09T00:54:40.494Z,11.31
2023-05-09T00:57:13.080Z,11.29
2023-05-09T00:59:45.519Z,11.29
2023-05-09T01:02:18.505Z,11.26
2023-05-09T01:04:51.359Z,11.23
2023-05-09T01:07:31.540Z,11.20
2023-05-09T01:10:09.329Z,11.16
2023-05-09T01:12:51.199Z,11.14
2023-05-09T01:15:30.570Z,11.12
2023-05-09T01:18:11.044Z,11.08
2023-05-09T01:20:47.512Z,11.04
2023-05-09T01:23:46.260Z,11.02
2023-05-09T01:26:26.838Z,10.98
2023-05-09T01:29:27.170Z,10.95
2023-05-09T01:32:01.257Z,10.91
2023-05-09T01:34:36.721Z,10.90
2023-05-09T01:37:10.856Z,10.89
2023-05-09T01:39:47.969Z,10.85
2023-05-09T01:42:22.561Z,10.84
2023-05-09T01:44:53.974Z,10.82
2023-05-09T01:47:26.831Z,10.82
2023-05-09T01:50:01.091Z,10.78
2023-05-09T01:52:36.461Z,10.77
2023-05-09T01:55:12.192Z,10.75
2023-05-09T01:57:45.823Z,10.72
2023-05-09T02:00:20.092Z,10.72
2023-05-09T02:02:53.333Z,10.65
2023-05-09T02:05:29.808Z,10.68
2023-05-09T02:08:02.130Z,10.65
2023-05-09T02:10:36.455Z,10.64
2023-05-09T02:13:10.269Z,10.60
2023-05-09T02:15:43.372Z,10.63
2023-05-09T02:18:16.924Z,10.58
2023-05-09T02:20:49.441Z,10.54
2023-05-09T02:23:23.599Z,10.51
2023-05-09T02:25:56.154Z,10.49
2023-05-09T02:28:29.709Z,10.47
2023-05-09T02:31:06.509Z,10.48
2023-05-09T02:33:40.590Z,10.49
2023-05-09T02:36:15.393Z,10.50
2023-05-09T02:38:49.056Z,10.46
2023-05-09T02:41:21.835Z,10.38
2023-05-09T02:43:54.129Z,10.44
2023-05-09T02:46:27.128Z,10.44
2023-05-09T02:48:59.551Z,10.43
2023-05-09T02:51:32.477Z,10.41
2023-05-09T02:54:05.116Z,10.38
2023-05-09T02:56:37.339Z,10.38
2023-05-09T02:59:09.558Z,10.35
2023-05-09T03:01:41.813Z,10.34
2023-05-09T03:04:15.050Z,10.32
2023-05-09T03:06:47.559Z,10.33
2023-05-09T03:09:20.144Z,10.30
2023-05-09T03:11:52.666Z,10.30
2023-05-09T03:14:25.138Z,10.29
2023-05-09T03:16:57.586Z,10.29
2023-05-09T03:19:37.236Z,10.31
2023-05-09T03:22:10.558Z,10.30
2023-05-09T03:24:44.239Z,10.28
2023-05-09T03:27:16.763Z,10.29
2023-05-09T03:29:49.361Z,10.28
2023-05-09T03:32:21.827Z,10.29
2023-05-09T03:34:54.832Z,10.29
2023-05-09T03:37:27.350Z,10.31
2023-05-09T03:40:00.159Z,10.32
2023-05-09T03:42:34.124Z,10.33
2023-05-09T03:45:07.368Z,10.33
2023-05-09T03:47:40.004Z,10.34
2023-05-09T03:50:13.748Z,10.36
2023-05-09T03:52:47.668Z,10.36
2023-05-09T03:55:23.788Z,10.38
2023-05-09T03:57:55.004Z,10.39
2023-05-09T04:00:28.004Z,10.42
2023-05-09T04:03:06.578Z,10.45
2023-05-09T04:05:43.274Z,10.46
2023-05-09T04:08:20.154Z,10.38
2023-05-09T04:10:53.260Z,10.41
2023-05-09T04:13:25.758Z,10.46
2023-05-09T04:15:58.409Z,10.48
2023-05-09T04:18:31.362Z,10.48
2023-05-09T04:21:03.742Z,10.52
2023-05-09T04:23:36.320Z,10.53
2023-05-09T04:26:09.826Z,10.55
2023-05-09T04:28:42.301Z,10.56
2023-05-09T04:31:15.411Z,10.60
2023-05-09T04:33:49.118Z,10.64
2023-05-09T04:36:22.242Z,10.57
2023-05-09T04:38:54.742Z,10.66
2023-05-09T04:41:29.792Z,10.69
2023-05-09T04:44:02.789Z,10.73
2023-05-09T04:46:35.537Z,10.75
2023-05-09T04:49:08.114Z,10.80
2023-05-09T04:51:40.572Z,10.88
2023-05-09T04:54:13.519Z,10.91
2023-05-09T04:56:47.854Z,10.96
2023-05-09T04:59:21.512Z,10.93
2023-05-09T05:01:55.736Z,10.99
2023-05-09T05:04:28.351Z,10.96
2023-05-09T05:07:01.061Z,11.12
2023-05-09T05:09:33.280Z,11.15
2023-05-09T05:12:09.285Z,11.18
2023-05-09T05:14:42.632Z,11.24
2023-05-09T05:17:17.460Z,11.30
2023-05-09T05:19:50.497Z,11.34
2023-05-09T05:22:23.416Z,11.36
2023-05-09T05:24:56.259Z,11.45
2023-05-09T05:27:29.369Z,11.54
2023-05-09T05:30:02.469Z,11.57
2023-05-09T05:32:34.862Z,11.64
2023-05-09T05:35:08.213Z,11.69
2023-05-09T05:37:41.547Z,11.75
2023-05-09T05:40:14.370Z,11.80
2023-05-09T05:42:48.921Z,11.89
2023-05-09T05:45:22.004Z,11.97
2023-05-09T05:47:56.974Z,12.02
2023-05-09T05:50:30.588Z,12.11
2023-05-09T05:53:03.626Z,12.15
2023-05-09T05:55:36.381Z,12.25
2023-05-09T05:58:10.485Z,12.39
2023-05-09T06:00:43.219Z,12.43
2023-05-09T06:03:16.196Z,12.50
2023-05-09T06:05:57.892Z,12.62
2023-05-09T06:08:30.326Z,12.66
2023-05-09T06:11:05.997Z,12.81
2023-05-09T06:13:38.332Z,12.87
2023-05-09T06:16:19.596Z,12.98
2023-05-09T06:18:55.877Z,13.09
2023-05-09T06:21:28.405Z,13.16
2023-05-09T06:24:08.353Z,13.26
2023-05-09T06:26:42.488Z,13.34
2023-05-09T06:29:15.554Z,13.55
2023-05-09T06:31:48.016Z,13.61
2023-05-09T06:34:20.215Z,13.70
2023-05-09T06:36:52.573Z,13.80
2023-05-09T06:39:24.819Z,13.78
2023-05-09T06:41:57.238Z,13.85
2023-05-09T06:44:35.606Z,13.88
2023-05-09T06:47:07.956Z,14.03
2023-05-09T06:49:40.121Z,13.94
2023-05-09T06:52:12.968Z,13.92
2023-05-09T06:54:45.303Z,14.01
2023-05-09T06:57:17.614Z,14.06
2023-05-09T06:59:50.753Z,14.11
2023-05-09T07:02:23.579Z,14.32
2023-05-09T07:04:56.275Z,14.46
2023-05-09T07:07:28.688Z,14.45
2023-05-09T07:10:10.451Z,14.50
2023-05-09T07:12:43.524Z,14.48
2023-05-09T07:15:28.786Z,14.58
2023-05-09T07:18:10.014Z,14.72
2023-05-09T07:20:42.638Z,14.79
2023-05-09T07:23:15.075Z,14.92
2023-05-09T07:25:47.270Z,14.93
2023-05-09T07:28:19.760Z,14.99
2023-05-09T07:30:52.398Z,15.06
2023-05-09T07:33:24.683Z,15.09
2023-05-09T07:35:57.098Z,15.26
2023-05-09T07:38:29.376Z,15.26
2023-05-09T07:41:01.877Z,15.37
2023-05-09T07:43:34.271Z,15.47
2023-05-09T07:46:06.560Z,15.60
2023-05-09T07:48:39.005Z,15.60
2023-05-09T07:51:11.318Z,15.67
2023-05-09T07:53:43.565Z,15.56
2023-05-09T07:56:15.985Z,15.67
2023-05-09T07:58:48.155Z,15.59
2023-05-09T08:01:21.290Z,15.67
2023-05-09T08:03:53.656Z,15.65
2023-05-09T08:06:26.574Z,15.75
2023-05-09T08:08:59.068Z,15.89
2023-05-09T08:11:32.383Z,15.84
2023-05-09T08:14:04.866Z,15.85
2023-05-09T08:16:37.292Z,15.96
2023-05-09T08:19:09.675Z,15.97
2023-05-09T08:21:41.856Z,15.96
2023-05-09T08:24:14.072Z,16.11
2023-05-09T08:26:46.439Z,16.21
2023-05-09T08:29:18.790Z,16.16
2023-05-09T08:31:51.522Z,16.21
2023-05-09T08:34:24.841Z,16.24
2023-05-09T08:36:57.112Z,16.38
2023-05-09T08:39:29.388Z,16.40
2023-05-09T08:42:02.814Z,16.34
2023-05-09T08:44:34.971Z,16.44
2023-05-09T08:47:08.345Z,16.65
2023-05-09T08:49:41.281Z,16.72
2023-05-09T08:52:13.717Z,16.86
2023-05-09T08:54:46.279Z,16.89
2023-05-09T08:57:18.849Z,16.94
2023-05-09T08:59:52.804Z,16.99
2023-05-09T09:02:25.681Z,17.16
2023-05-09T09:04:58.731Z,17.11
2023-05-09T09:07:31.702Z,17.19
2023-05-09T09:10:07.030Z,17.18
2023-05-09T09:12:39.960Z,17.19
2023-05-09T09:15:17.416Z,17.36
2023-05-09T09:17:52.688Z,17.27
2023-05-09T09:20:27.213Z,17.47
2023-05-09T09:23:02.141Z,17.44
2023-05-09T09:25:34.619Z,17.54
2023-05-09T09:28:07.211Z,17.65
2023-05-09T09:30:48.399Z,17.85
2023-05-09T09:33:25.470Z,17.85
2023-05-09T09:35:59.800Z,17.91
2023-05-09T09:38:43.903Z,18.10
2023-05-09T09:41:16.499Z,18.08
2023-05-09T09:43:49.103Z,18.18
2023-05-09T09:46:21.614Z,18.28
2023-05-09T09:48:57.647Z,18.30
2023-05-09T09:51:32.516Z,18.38
2023-05-09T09:54:04.987Z,18.44
2023-05-09T09:56:46.016Z,18.61
2023-05-09T09:59:19.774Z,18.60
2023-05-09T10:02:07.675Z,18.60
2023-05-09T10:04:42.927Z,18.70
2023-05-09T10:07:15.744Z,18.78
2023-05-09T10:09:49.509Z,18.88
2023-05-09T10:12:23.582Z,18.93
2023-05-09T10:14:56.676Z,18.97
2023-05-09T10:17:31.730Z,18.99
2023-05-09T10:20:07.276Z,19.00
2023-05-09T10:22:41.718Z,18.97
2023-05-09T10:25:20.554Z,19.18
2023-05-09T10:27:55.881Z,19.07
2023-05-09T10:30:34.292Z,19.11
2023-05-09T10:33:11.898Z,19.19
2023-05-09T10:35:48.806Z,19.21
2023-05-09T10:38:21.502Z,19.32
2023-05-09T10:40:54.696Z,19.34
2023-05-09T10:43:27.288Z,19.27
2023-05-09T10:45:59.467Z,19.36
2023-05-09T10:48:33.428Z,19.38
2023-05-09T10:51:09.216Z,19.47
2023-05-09T10:53:45.938Z,19.60
2023-05-09T10:56:32.900Z,19.59
2023-05-09T10:59:05.682Z,19.80
2023-05-09T11:01:40.139Z,19.93
2023-05-09T11:04:18.339Z,20.05
2023-05-09T11:06:52.545Z,20.18
2023-05-09T11:09:35.849Z,20.32
2023-05-09T11:12:16.657Z,20.42
2023-05-09T11:14:51.795Z,20.52
2023-05-09T11:17:33.544Z,20.36
2023-05-09T11:20:08.150Z,20.46
2023-05-09T11:22:44.724Z,20.47
2023-05-09T11:25:18.446Z,20.39
2023-05-09T11:27:52.365Z,20.46
2023-05-09T11:30:35.918Z,20.43
2023-05-09T11:33:22.319Z,20.47
2023-05-09T11:36:25.746Z,20.56
2023-05-09T11:39:10.122Z,20.62
2023-05-09T11:41:48.383Z,20.67
2023-05-09T11:44:19.839Z,20.73
2023-05-09T11:46:52.115Z,20.77
2023-05-09T11:49:24.820Z,20.80
2023-05-09T11:52:00.465Z,20.96
2023-05-09T11:54:32.520Z,20.93
2023-05-09T11:57:04.760Z,20.97
2023-05-09T11:59:39.681Z,21.10
2023-05-09T12:02:12.598Z,21.05
2023-05-09T12:04:45.204Z,20.92
2023-05-09T12:07:19.019Z,21.06
2023-05-09T12:09:53.069Z,21.09
2023-05-09T12:12:25.357Z,20.94
2023-05-09T12:14:57.525Z,20.87
2023-05-09T12:17:29.966Z,21.06
2023-05-09T12:20:04.885Z,21.15
2023-05-09T12:22:37.744Z,21.20
2023-05-09T12:25:12.557Z,21.13
2023-05-09T12:27:44.869Z,21.30
2023-05-09T12:30:18.738Z,21.42
2023-05-09T12:32:51.440Z,21.44
2023-05-09T12:35:24.573Z,21.54
2023-05-09T12:38:01.785Z,21.57
2023-05-09T12:40:34.392Z,21.59
2023-05-09T12:43:06.704Z,21.63
2023-05-09T12:45:42.486Z,21.60
2023-05-09T12:48:15.152Z,21.60
2023-05-09T12:50:49.902Z,21.65
2023-05-09T12:53:30.761Z,21.66
2023-05-09T12:56:06.906Z,21.74
2023-05-09T12:58:39.639Z,21.74
2023-05-09T13:01:12.429Z,21.87
2023-05-09T13:03:45.026Z,21.89
2023-05-09T13:06:17.387Z,21.86
2023-05-09T13:09:01.860Z,21.82
2023-05-09T13:11:34.551Z,21.85
2023-05-09T13:14:07.097Z,21.79
2023-05-09T13:16:39.582Z,21.80
2023-05-09T13:19:12.029Z,21.68
2023-05-09T13:21:44.253Z,21.76
2023-05-09T13:24:16.488Z,21.54
2023-05-09T13:26:48.490Z,21.59
2023-05-09T13:29:20.686Z,21.69
2023-05-09T13:31:53.051Z,21.73
2023-05-09T13:34:25.240Z,21.68
2023-05-09T13:36:57.709Z,21.70
2023-05-09T13:39:30.089Z,21.80
2023-05-09T13:42:02.663Z,21.85
2023-05-09T13:44:34.812Z,21.93
2023-05-09T13:47:07.890Z,21.96
2023-05-09T13:49:40.089Z,21.94
2023-05-09T13:52:12.240Z,21.81
2023-05-09T13:54:44.557Z,21.80
2023-05-09T13:57:22.594Z,21.73
2023-05-09T13:59:54.725Z,21.64
2023-05-09T14:02:27.126Z,21.62
2023-05-09T14:04:59.973Z,21.61
2023-05-09T14:07:32.739Z,21.80
2023-05-09T14:10:11.431Z,21.85
2023-05-09T14:12:46.822Z,21.95
2023-05-09T14:15:17.611Z,21.83
2023-05-09T14:17:49.955Z,21.90
2023-05-09T14:20:22.441Z,21.92
2023-05-09T14:22:59.752Z,21.82
2023-05-09T14:25:32.467Z,21.87
2023-05-09T14:28:04.689Z,21.88
2023-05-09T14:30:36.765Z,21.81
2023-05-09T14:33:08.779Z,21.73
2023-05-09T14:35:41.784Z,21.67
2023-05-09T14:38:14.651Z,21.78
2023-05-09T14:40:47.091Z,21.82
2023-05-09T14:43:19.781Z,21.86
2023-05-09T14:45:52.198Z,21.74
2023-05-09T14:48:24.941Z,21.80
2023-05-09T14:50:57.352Z,21.94
2023-05-09T14:53:30.638Z,21.84
2023-05-09T14:56:02.965Z,21.72
2023-05-09T14:58:35.544Z,21.58
2023-05-09T15:01:07.742Z,21.49
2023-05-09T15:03:40.270Z,21.53
2023-05-09T15:06:14.881Z,21.53
2023-05-09T15:08:47.934Z,21.49
2023-05-09T15:11:20.383Z,21.48
2023-05-09T15:13:54.453Z,21.55
2023-05-09T15:16:26.754Z,21.55
2023-05-09T15:18:59.869Z,21.57
2023-05-09T15:21:33.417Z,21.45
2023-05-09T15:24:05.618Z,21.41
2023-05-09T15:26:37.712Z,21.44
2023-05-09T15:29:11.503Z,21.35
2023-05-09T15:31:43.858Z,21.10
2023-05-09T15:34:16.471Z,21.22
2023-05-09T15:36:48.598Z,21.15
2023-05-09T15:39:20.923Z,21.05
2023-05-09T15:41:54.111Z,21.15
2023-05-09T15:44:26.882Z,21.17
2023-05-09T15:46:59.363Z,21.15
2023-05-09T15:49:31.998Z,21.12
2023-05-09T15:52:05.229Z,21.09
2023-05-09T15:54:38.136Z,20.94
2023-05-09T15:57:10.784Z,21.04
2023-05-09T15:59:43.471Z,21.06
2023-05-09T16:02:15.746Z,21.12
2023-05-09T16:04:49.730Z,21.08
2023-05-09T16:07:22.000Z,20.99
2023-05-09T16:09:54.532Z,20.86
2023-05-09T16:12:27.044Z,20.90
2023-05-09T16:14:59.415Z,20.91
2023-05-09T16:17:32.597Z,20.93
2023-05-09T16:20:05.213Z,20.97
2023-05-09T16:22:37.590Z,20.83
2023-05-09T16:25:12.549Z,20.73
2023-05-09T16:27:45.237Z,20.77
2023-05-09T16:30:18.736Z,20.79
2023-05-09T16:32:50.783Z,20.83
2023-05-09T16:35:23.188Z,20.73
2023-05-09T16:37:55.355Z,20.79
2023-05-09T16:40:28.638Z,20.89
2023-05-09T16:43:00.840Z,20.78
2023-05-09T16:45:33.323Z,20.86
2023-05-09T16:48:05.956Z,20.57
2023-05-09T16:50:38.558Z,20.78
2023-05-09T16:53:10.688Z,20.75
2023-05-09T16:55:43.016Z,20.82
2023-05-09T16:58:15.386Z,20.83
2023-05-09T17:00:47.926Z,20.84
2023-05-09T17:03:20.865Z,20.78
2023-05-09T17:05:53.203Z,20.82
2023-05-09T17:08:25.564Z,20.70
2023-05-09T17:10:57.900Z,20.80
2023-05-09T17:13:30.129Z,20.76
2023-05-09T17:16:03.071Z,20.81
2023-05-09T17:18:38.069Z,20.76
2023-05-09T17:21:10.664Z,20.81
2023-05-09T17:23:42.772Z,20.86
2023-05-09T17:26:15.048Z,20.91
2023-05-09T17:28:47.967Z,20.77
2023-05-09T17:31:20.171Z,20.84
2023-05-09T17:33:52.489Z,20.90
2023-05-09T17:36:25.781Z,20.95
2023-05-09T17:38:57.783Z,21.03
2023-05-09T17:41:30.430Z,21.13
2023-05-09T17:44:02.796Z,21.10
2023-05-09T17:46:35.738Z,21.13
2023-05-09T17:49:10.936Z,21.20
2023-05-09T17:51:44.073Z,21.33
2023-05-09T17:54:19.016Z,21.39
2023-05-09T17:56:56.083Z,21.49
2023-05-09T17:59:29.228Z,21.55
2023-05-09T18:02:01.534Z,21.38
2023-05-09T18:04:34.622Z,21.37
2023-05-09T18:07:11.033Z,21.15
2023-05-09T18:09:43.185Z,20.95
2023-05-09T18:12:15.835Z,20.66
2023-05-09T18:14:48.173Z,20.48
2023-05-09T18:17:20.684Z,20.28
2023-05-09T18:19:54.206Z,20.01
2023-05-09T18:22:27.002Z,19.71
2023-05-09T18:24:59.444Z,19.76
2023-05-09T18:27:32.226Z,19.67
2023-05-09T18:30:04.928Z,19.49
2023-05-09T18:32:37.297Z,19.36
2023-05-09T18:35:11.143Z,19.34
2023-05-09T18:37:43.995Z,19.22
2023-05-09T18:40:16.982Z,19.07
2023-05-09T18:42:50.150Z,18.95
2023-05-09T18:45:22.554Z,18.92
2023-05-09T18:47:58.780Z,18.80
2023-05-09T18:50:31.500Z,18.79
2023-05-09T18:53:04.030Z,18.57
2023-05-09T18:55:36.251Z,18.48
2023-05-09T18:58:09.088Z,18.49
2023-05-09T19:00:42.862Z,18.33
2023-05-09T19:03:15.201Z,18.30
2023-05-09T19:05:47.624Z,18.28
2023-05-09T19:08:19.861Z,18.21
2023-05-09T19:10:52.217Z,18.13
2023-05-09T19:13:24.710Z,18.02
2023-05-09T19:15:56.884Z,18.07
2023-05-09T19:18:29.786Z,17.94
2023-05-09T19:21:02.518Z,17.90
2023-05-09T19:23:34.984Z,17.80
2023-05-09T19:26:07.269Z,17.74
2023-05-09T19:28:40.479Z,17.68
2023-05-09T19:31:12.823Z,17.61
2023-05-09T19:33:46.520Z,17.55
2023-05-09T19:36:18.984Z,17.52
2023-05-09T19:38:51.460Z,17.50
2023-05-09T19:41:23.624Z,17.47
2023-05-09T19:43:56.172Z,17.39
2023-05-09T19:46:28.546Z,17.40
2023-05-09T19:49:01.035Z,17.26
2023-05-09T19:51:33.268Z,17.32
2023-05-09T19:54:05.643Z,17.37
2023-05-09T19:56:38.405Z,17.29
2023-05-09T19:59:10.573Z,17.10
2023-05-09T20:01:42.952Z,17.08
2023-05-09T20:04:16.497Z,17.06
2023-05-09T20:06:48.726Z,17.11
2023-05-09T20:09:21.405Z,16.91
2023-05-09T20:11:53.679Z,16.95
2023-05-09T20:14:26.148Z,16.98
2023-05-09T20:16:59.631Z,16.88
2023-05-09T20:19:32.126Z,16.95
2023-05-09T20:22:04.571Z,16.94
2023-05-09T20:24:36.765Z,16.92
2023-05-09T20:27:09.058Z,16.93
2023-05-09T20:29:41.316Z,16.75
2023-05-09T20:32:13.578Z,16.69
2023-05-09T20:34:46.691Z,16.72
2023-05-09T20:37:19.385Z,16.79
2023-05-09T20:39:51.834Z,16.79
2023-05-09T20:42:24.384Z,16.79
2023-05-09T20:44:57.189Z,16.70
2023-05-09T20:47:29.653Z,16.70
2023-05-09T20:50:02.382Z,16.64
2023-05-09T20:52:35.440Z,16.66
2023-05-09T20:55:08.772Z,16.67
2023-05-09T20:57:40.809Z,16.59
2023-05-09T21:00:14.970Z,16.61
2023-05-09T21:02:47.365Z,16.58
2023-05-09T21:05:19.601Z,16.49
2023-05-09T21:07:51.800Z,16.56
2023-05-09T21:10:24.039Z,16.67
2023-05-09T21:12:56.355Z,16.62
2023-05-09T21:15:28.911Z,16.54
2023-05-09T21:18:01.303Z,16.51
2023-05-09T21:20:33.810Z,16.59
2023-05-09T21:23:06.280Z,16.61
2023-05-09T21:25:38.443Z,16.57
2023-05-09T21:28:10.880Z,16.47
2023-05-09T21:30:43.142Z,16.48
2023-05-09T21:33:15.589Z,16.39
2023-05-09T21:35:48.060Z,16.43
2023-05-09T21:38:20.171Z,16.40
2023-05-09T21:40:53.599Z,16.42
2023-05-09T21:43:25.745Z,16.45
2023-05-09T21:45:58.156Z,16.45
2023-05-09T21:48:30.216Z,16.50
2023-05-09T21:51:05.049Z,16.43
2023-05-09T21:53:35.725Z,16.38
2023-05-09T21:56:09.286Z,16.44
2023-05-09T21:58:41.630Z,16.24
2023-05-09T22:01:14.051Z,16.40
2023-05-09T22:03:46.317Z,16.29
2023-05-09T22:06:18.913Z,16.30
2023-05-09T22:08:51.816Z,16.25
2023-05-09T22:11:24.462Z,16.17
2023-05-09T22:13:56.827Z,16.14
2023-05-09T22:16:30.108Z,16.14
2023-05-09T22:19:02.617Z,16.13
2023-05-09T22:21:35.080Z,16.11
2023-05-09T22:27:44.003Z,16.00
2023-05-09T22:30:16.884Z,16.01
2023-05-09T22:32:49.240Z,15.99
2023-05-09T22:35:21.680Z,15.93
2023-05-09T22:37:53.635Z,15.95
2023-05-09T22:40:26.531Z,15.94
2023-05-09T22:42:58.808Z,15.88
2023-05-09T22:45:30.951Z,15.78
2023-05-09T22:48:03.609Z,15.77
2023-05-09T22:50:36.533Z,15.70
2023-05-09T22:53:09.279Z,15.59
2023-05-09T22:55:41.853Z,15.60
2023-05-09T22:58:14.007Z,15.58
2023-05-09T23:00:46.475Z,15.51
2023-05-09T23:03:18.742Z,15.39
2023-05-09T23:05:51.510Z,15.39
2023-05-09T23:08:23.850Z,15.33
2023-05-09T23:10:56.215Z,15.35
2023-05-09T23:13:28.389Z,15.28
2023-05-09T23:16:01.216Z,15.29
2023-05-09T23:18:33.461Z,15.22
2023-05-09T23:21:05.896Z,15.05
2023-05-09T23:23:38.612Z,15.08
2023-05-09T23:26:11.030Z,15.05
2023-05-09T23:28:43.090Z,15.00
2023-05-09T23:34:11.360Z,14.92
2023-05-09T23:36:43.329Z,14.86
2023-05-09T23:39:16.446Z,14.79
2023-05-09T23:41:48.505Z,14.80
2023-05-09T23:44:20.562Z,14.83
2023-05-09T23:46:52.656Z,14.72
2023-05-09T23:49:24.887Z,14.69
2023-05-09T23:55:19.114Z,14.65
2023-05-09T23:57:51.705Z,14.56
